Time;durP1;ratioP1;P1;durP2;ratioP2;P2;SDS_P1;SDS_P2;PMS_P1;PMS_P2;Temp;Humidity;BMP_temperature;BMP_pressure;BME280_temperature;BME280_humidity;BME280_pressure;Samples;Min_cycle;Max_cycle;Signal;HPM_P1;HPM_P2
2023/04/09 00:02:09;;;;;;;32.58;20.58;;;;;;;4.12;88.95;96018.47;4936027;29;20079;-71
2023/04/09 00:04:34;;;;;;;25.55;17.05;;;;;;;4.10;88.45;96018.53;4936712;29;20019;-71
2023/04/09 00:07:00;;;;;;;26.02;16.77;;;;;;;3.99;90.06;96019.19;4935930;29;20024;-71
2023/04/09 00:09:25;;;;;;;27.38;17.80;;;;;;;3.92;90.92;96023.09;4933439;29;20126;-71
2023/04/09 00:11:50;;;;;;;28.02;19.48;;;;;;;3.91;91.57;96028.41;4934107;29;20752;-71
2023/04/09 00:14:16;;;;;;;27.23;19.38;;;;;;;3.92;90.90;96023.09;4932957;29;20032;-71
2023/04/09 00:16:41;;;;;;;31.73;18.33;;;;;;;3.92;91.06;96017.03;4932307;29;20080;-71
2023/04/09 00:19:07;;;;;;;25.75;17.98;;;;;;;3.92;90.37;96017.03;4935823;29;20042;-70
2023/04/09 00:21:32;;;;;;;26.27;18.08;;;;;;;3.86;90.88;96013.03;4934194;29;20035;-72
2023/04/09 00:23:57;;;;;;;26.90;17.27;;;;;;;3.87;90.08;96014.75;4919304;29;20055;-71
2023/04/09 00:26:23;;;;;;;21.55;16.10;;;;;;;3.85;91.05;96017.44;4934745;29;20020;-71
2023/04/09 00:28:48;;;;;;;24.83;16.63;;;;;;;3.82;90.96;96014.16;4928346;29;20032;-71
2023/04/09 00:31:14;;;;;;;22.52;15.85;;;;;;;3.78;91.38;96018.72;4928582;29;20056;-71
2023/04/09 00:33:40;;;;;;;19.63;14.23;;;;;;;3.78;91.05;96010.06;4931482;29;20016;-71
2023/04/09 00:36:05;;;;;;;18.38;14.10;;;;;;;3.75;91.18;96005.88;4919382;29;20114;-71
2023/04/09 00:38:31;;;;;;;18.75;14.05;;;;;;;3.76;90.92;96012.78;4918768;29;20023;-71
2023/04/09 00:40:56;;;;;;;19.33;13.93;;;;;;;3.71;91.54;96007.00;4918890;29;20040;-71
2023/04/09 00:43:22;;;;;;;16.85;12.55;;;;;;;3.66;91.76;96016.84;4931207;29;20117;-71
2023/04/09 00:45:47;;;;;;;15.32;12.80;;;;;;;3.60;92.67;96007.63;4930849;29;20497;-71
2023/04/09 00:48:13;;;;;;;14.32;12.32;;;;;;;3.61;91.83;96004.09;4935831;29;20031;-71
2023/04/09 00:50:38;;;;;;;15.05;11.13;;;;;;;3.60;91.59;96007.63;4935664;29;20023;-70
2023/04/09 00:53:04;;;;;;;11.93;10.10;;;;;;;3.52;93.11;96004.66;4935449;29;20503;-71
2023/04/09 00:55:30;;;;;;;12.63;10.18;;;;;;;3.51;93.41;96002.97;4933115;29;20063;-71
2023/04/09 00:57:56;;;;;;;12.00;10.18;;;;;;;3.48;93.52;96003.16;4930074;29;20055;-71
2023/04/09 01:00:21;;;;;;;14.23;11.07;;;;;;;3.44;93.68;96003.34;4932209;29;20099;-71
2023/04/09 01:02:47;;;;;;;12.10;9.05;;;;;;;3.41;93.96;96006.09;4935568;29;20039;-71
2023/04/09 01:05:14;;;;;;;15.38;9.07;;;;;;;3.36;94.77;96004.72;4935526;29;20023;-71
2023/04/09 01:07:45;;;;;;;10.45;9.10;;;;;;;3.34;95.03;96004.81;4932346;29;20032;-71
2023/04/09 01:10:26;;;;;;;9.00;7.75;;;;;;;3.29;95.03;96002.47;4934243;29;20036;-72
2023/04/09 01:13:07;;;;;;;9.88;8.80;;;;;;;3.23;95.17;96009.81;4932920;29;20020;-71
2023/04/09 01:15:37;;;;;;;8.85;7.95;;;;;;;3.20;94.91;96008.22;4930887;29;20106;-71
2023/04/09 01:18:11;;;;;;;8.20;6.60;;;;;;;3.20;95.01;96008.22;4928370;29;20619;-71
2023/04/09 01:20:55;;;;;;;7.93;7.05;;;;;;;3.17;94.21;96011.00;4936289;29;20030;-71
2023/04/09 01:23:34;;;;;;;7.47;6.78;;;;;;;3.15;94.21;96007.66;4932446;29;20035;-71
2023/04/09 01:26:22;;;;;;;7.03;6.28;;;;;;;3.15;94.26;96012.84;4930459;29;20032;-71
2023/04/09 01:28:52;;;;;;;6.78;6.07;;;;;;;3.03;95.47;96017.00;4918365;29;20437;-71
2023/04/09 01:31:20;;;;;;;6.75;6.15;;;;;;;3.05;94.21;96011.69;4930680;29;20067;-72
2023/04/09 01:33:46;;;;;;;5.80;5.30;;;;;;;3.27;92.69;96029.53;4934700;29;20038;-71
2023/04/09 01:36:13;;;;;;;5.57;4.97;;;;;;;3.27;92.65;96024.31;4918032;29;20114;-71
2023/04/09 01:38:41;;;;;;;6.68;5.47;;;;;;;3.14;94.28;96027.59;4929024;29;20106;-71
2023/04/09 01:41:09;;;;;;;8.32;7.53;;;;;;;3.01;94.79;96022.28;4940106;29;20062;-71
2023/04/09 01:43:36;;;;;;;8.90;8.00;;;;;;;2.95;96.62;96022.63;4931286;29;20031;-71
2023/04/09 01:46:02;;;;;;;7.35;6.35;;;;;;;2.91;97.27;96025.47;4939360;29;20441;-71
2023/04/09 01:48:29;;;;;;;8.50;6.70;;;;;;;2.92;97.32;96022.81;4937181;29;20023;-71
2023/04/09 01:50:55;;;;;;;7.55;6.78;;;;;;;2.91;96.65;96026.31;4922130;29;20035;-72
2023/04/09 01:53:21;;;;;;;7.93;7.03;;;;;;;2.94;96.21;96023.56;4918642;29;20038;-71
2023/04/09 01:55:46;;;;;;;10.10;6.93;;;;;;;2.96;95.53;96023.44;4938998;29;20484;-71
2023/04/09 01:58:12;;;;;;;6.90;6.30;;;;;;;2.91;96.68;96022.88;4938502;29;20130;-72
2023/04/09 02:00:43;;;;;;;6.57;6.00;;;;;;;2.86;96.15;96021.38;4936035;29;20500;-71
2023/04/09 02:03:25;;;;;;;6.55;5.88;;;;;;;2.79;96.76;96033.06;4935405;29;20492;-71
2023/04/09 02:06:10;;;;;;;6.47;5.90;;;;;;;2.70;95.94;96024.00;4934676;29;20019;-71
2023/04/09 02:08:36;;;;;;;7.47;6.65;;;;;;;2.70;96.24;96029.19;4935538;29;20444;-71
2023/04/09 02:11:05;;;;;;;11.88;10.68;;;;;;;2.68;96.47;96028.44;4912785;29;20028;-71
2023/04/09 02:13:31;;;;;;;9.02;8.13;;;;;;;2.65;96.93;96031.22;4933812;29;20036;-71
2023/04/09 02:15:58;;;;;;;6.43;5.88;;;;;;;2.61;97.01;96034.06;4934230;29;20032;-71
2023/04/09 02:18:28;;;;;;;5.50;5.00;;;;;;;2.60;96.99;96033.22;4929226;29;20493;-71
2023/04/09 02:20:55;;;;;;;5.97;5.47;;;;;;;2.62;97.05;96030.53;4938012;29;20028;-71
2023/04/09 02:23:21;;;;;;;5.60;5.00;;;;;;;2.55;97.61;96024.84;4937857;29;20397;-71
2023/04/09 02:25:47;;;;;;;6.13;5.63;;;;;;;2.53;97.71;96031.88;4919955;29;20049;-72
2023/04/09 02:28:12;;;;;;;6.10;5.60;;;;;;;2.53;96.74;96032.72;4932777;29;20027;-72
2023/04/09 02:30:38;;;;;;;6.03;5.55;;;;;;;2.49;98.23;96036.41;4933669;29;20114;-71
2023/04/09 02:33:04;;;;;;;6.55;6.00;;;;;;;2.46;97.26;96027.97;4936631;29;20032;-72
2023/04/09 02:35:29;;;;;;;6.57;5.97;;;;;;;2.46;96.85;96026.19;4927933;29;20124;-71
2023/04/09 02:37:55;;;;;;;6.13;5.53;;;;;;;2.47;96.54;96037.44;4932962;29;20072;-72
2023/04/09 02:40:20;;;;;;;6.05;5.45;;;;;;;2.42;97.35;96030.69;4929143;29;20489;-72
2023/04/09 02:42:45;;;;;;;5.95;5.50;;;;;;;2.41;97.61;96030.81;4924368;29;20103;-72
2023/04/09 02:45:11;;;;;;;12.35;6.22;;;;;;;2.35;98.31;96033.75;4932901;29;20071;-71
2023/04/09 02:47:36;;;;;;;7.25;6.53;;;;;;;2.31;98.62;96032.19;4928342;29;20064;-72
2023/04/09 02:50:02;;;;;;;5.95;5.50;;;;;;;2.29;98.22;96034.91;4937685;29;20023;-72
2023/04/09 02:52:27;;;;;;;5.88;5.40;;;;;;;2.26;99.61;96025.50;4936218;29;20030;-72
2023/04/09 02:54:53;;;;;;;7.03;6.43;;;;;;;2.29;98.38;96030.53;4936674;29;20635;-72
2023/04/09 02:57:18;;;;;;;8.85;6.35;;;;;;;2.25;97.95;96033.41;4937336;29;20175;-72
2023/04/09 02:59:44;;;;;;;9.27;7.00;;;;;;;2.25;98.31;96026.41;4912991;29;20034;-72
2023/04/09 03:02:10;;;;;;;7.93;7.22;;;;;;;2.22;98.33;96044.78;4925360;29;20062;-72
2023/04/09 03:04:36;;;;;;;10.02;8.85;;;;;;;2.12;99.41;96035.81;4935113;29;20024;-72
2023/04/09 03:07:01;;;;;;;9.75;8.50;;;;;;;2.09;98.97;96031.59;4925754;29;20108;-72
2023/04/09 03:09:28;;;;;;;7.80;7.03;;;;;;;2.08;100.00;96031.66;4936468;29;20626;-71
2023/04/09 03:11:55;;;;;;;10.35;7.30;;;;;;;2.05;100.00;96035.28;4937274;29;20103;-72
2023/04/09 03:14:20;;;;;;;7.43;6.72;;;;;;;2.02;100.00;96034.59;4927570;29;20036;-72
2023/04/09 03:16:45;;;;;;;7.35;6.70;;;;;;;2.03;99.58;96031.09;4917065;29;20027;-72
2023/04/09 03:19:11;;;;;;;16.67;6.82;;;;;;;2.00;100.00;96032.94;4929065;29;20024;-72
2023/04/09 03:21:36;;;;;;;7.40;6.70;;;;;;;1.98;99.31;96031.31;4926765;29;20134;-72
2023/04/09 03:24:02;;;;;;;7.63;6.63;;;;;;;1.95;99.91;96034.94;4937092;29;20106;-72
2023/04/09 03:26:28;;;;;;;6.65;6.05;;;;;;;1.95;99.91;96032.34;4927858;29;20027;-72
2023/04/09 03:28:54;;;;;;;14.32;12.27;;;;;;;1.90;100.00;96036.09;4930847;29;20119;-72
2023/04/09 03:31:19;;;;;;;11.07;9.48;;;;;;;1.85;100.00;96028.53;4935507;29;20035;-72
2023/04/09 03:33:44;;;;;;;11.18;8.00;;;;;;;1.89;100.00;96027.47;4913421;29;20114;-73
2023/04/09 03:36:10;;;;;;;8.45;7.53;;;;;;;1.91;100.00;96028.22;4927562;29;20024;-72
2023/04/09 03:38:35;;;;;;;7.68;6.95;;;;;;;1.92;100.00;96022.13;4914611;29;20055;-72
2023/04/09 03:41:01;;;;;;;8.55;7.68;;;;;;;1.90;100.00;96023.94;4929597;29;20032;-72
2023/04/09 03:43:26;;;;;;;6.80;6.15;;;;;;;1.91;100.00;96023.03;4936601;29;20030;-71
2023/04/09 03:45:51;;;;;;;9.00;7.78;;;;;;;1.90;100.00;96021.34;4927106;29;20027;-71
2023/04/09 03:48:17;;;;;;;7.43;6.82;;;;;;;1.85;100.00;96020.75;4922729;29;20426;-71
2023/04/09 03:50:42;;;;;;;9.80;8.80;;;;;;;1.85;100.00;96019.00;4936371;29;20026;-71
2023/04/09 03:53:08;;;;;;;10.68;8.98;;;;;;;1.83;100.00;96026.03;4931499;29;20031;-70
2023/04/09 03:55:33;;;;;;;9.05;8.25;;;;;;;1.83;100.00;96027.78;4940463;29;20596;-71
2023/04/09 03:57:59;;;;;;;7.93;7.22;;;;;;;1.76;100.00;96014.25;4937097;29;20090;-70
2023/04/09 04:00:24;;;;;;;7.35;6.75;;;;;;;1.74;100.00;96021.28;4936337;29;20508;-72
2023/04/09 04:02:50;;;;;;;5.70;5.15;;;;;;;1.64;100.00;96020.09;4927041;29;20024;-72
2023/04/09 04:05:16;;;;;;;5.25;4.75;;;;;;;1.63;100.00;96021.03;4920696;29;20012;-71
2023/04/09 04:07:42;;;;;;;4.75;4.45;;;;;;;1.64;100.00;96025.28;4919526;29;20535;-72
2023/04/09 04:10:08;;;;;;;6.28;5.68;;;;;;;1.61;100.00;96028.88;4930568;29;20161;-72
2023/04/09 04:12:34;;;;;;;5.75;5.13;;;;;;;1.59;100.00;96020.34;4937128;29;20628;-73
2023/04/09 04:15:00;;;;;;;4.53;4.22;;;;;;;1.60;100.00;96032.41;4932918;29;20063;-72
2023/04/09 04:17:25;;;;;;;5.07;4.63;;;;;;;1.67;100.00;96038.13;4938053;29;20095;-72
2023/04/09 04:19:50;;;;;;;4.88;4.57;;;;;;;1.68;100.00;96035.44;4934714;29;20028;-72
2023/04/09 04:22:16;;;;;;;4.65;4.15;;;;;;;1.59;100.00;96038.50;4935326;29;20028;-72
2023/04/09 04:24:41;;;;;;;4.50;4.28;;;;;;;1.60;100.00;96037.59;4927308;29;20086;-72
2023/04/09 04:27:07;;;;;;;5.10;4.60;;;;;;;1.59;100.00;96048.88;4933662;29;20255;-71
2023/04/09 04:29:32;;;;;;;5.10;4.60;;;;;;;1.55;100.00;96056.00;4928407;29;20629;-72
2023/04/09 04:31:58;;;;;;;5.97;4.13;;;;;;;1.53;100.00;96049.19;4935892;29;20034;-72
2023/04/09 04:34:23;;;;;;;5.85;4.88;;;;;;;1.55;100.00;96056.00;4933200;29;20457;-72
2023/04/09 04:36:49;;;;;;;5.10;4.80;;;;;;;1.46;100.00;96055.63;4933987;29;20481;-72
2023/04/09 04:39:14;;;;;;;4.70;4.40;;;;;;;1.45;100.00;96061.72;4925261;29;20130;-72
2023/04/09 04:41:39;;;;;;;7.40;4.43;;;;;;;1.42;100.00;96065.31;4934286;29;20451;-73
2023/04/09 04:44:05;;;;;;;8.38;4.40;;;;;;;1.39;100.00;96065.47;4931339;29;20026;-72
2023/04/09 04:46:30;;;;;;;5.28;4.78;;;;;;;1.35;100.00;96069.13;4936070;29;20093;-72
2023/04/09 04:48:56;;;;;;;5.25;4.85;;;;;;;1.32;100.00;96074.44;4927888;29;20032;-73
2023/04/09 04:51:21;;;;;;;5.53;5.13;;;;;;;1.31;100.00;96077.97;4935788;29;20467;-72
2023/04/09 04:53:47;;;;;;;5.10;4.60;;;;;;;1.31;100.00;96071.03;4936360;29;20028;-72
2023/04/09 04:56:15;;;;;;;4.97;4.57;;;;;;;1.30;100.00;96082.31;4936388;29;20433;-72
2023/04/09 04:58:41;;;;;;;5.53;4.50;;;;;;;1.32;100.00;96077.91;4916033;29;20048;-72
2023/04/09 05:01:07;;;;;;;5.30;4.80;;;;;;;1.33;100.00;96082.16;4927787;29;20019;-72
2023/04/09 05:03:32;;;;;;;5.07;4.75;;;;;;;1.33;100.00;96082.16;4931181;29;20024;-72
2023/04/09 05:05:58;;;;;;;4.97;4.68;;;;;;;1.36;100.00;96081.19;4936001;29;20035;-72
2023/04/09 05:08:23;;;;;;;5.65;4.80;;;;;;;1.35;100.00;96082.09;4924401;29;20041;-72
2023/04/09 05:10:50;;;;;;;5.88;5.50;;;;;;;1.33;100.00;96076.97;4930584;29;20628;-72
2023/04/09 05:13:15;;;;;;;6.47;5.88;;;;;;;1.30;100.00;96077.13;4937104;29;21135;-72
2023/04/09 05:15:41;;;;;;;6.03;5.63;;;;;;;1.29;100.00;96076.28;4904185;29;20035;-72
2023/04/09 05:18:07;;;;;;;5.15;4.15;;;;;;;1.35;100.00;96079.50;4917862;29;20032;-73
2023/04/09 05:20:33;;;;;;;5.55;4.63;;;;;;;1.40;100.00;96083.53;4925928;29;20028;-72
2023/04/09 05:22:59;;;;;;;4.72;4.43;;;;;;;1.47;100.00;96085.84;4934619;29;20627;-72
2023/04/09 05:25:24;;;;;;;6.28;4.40;;;;;;;1.48;100.00;96088.34;4921286;29;20076;-72
2023/04/09 05:27:50;;;;;;;5.07;4.68;;;;;;;1.43;100.00;96082.56;4920417;29;20020;-72
2023/04/09 05:30:15;;;;;;;4.88;4.35;;;;;;;1.42;100.00;96091.25;4931718;29;20027;-72
2023/04/09 05:32:41;;;;;;;4.65;4.25;;;;;;;1.43;100.00;96093.75;4928397;29;20088;-72
2023/04/09 05:35:06;;;;;;;5.00;4.60;;;;;;;1.47;100.00;96091.03;4920545;29;20559;-72
2023/04/09 05:37:32;;;;;;;6.78;4.18;;;;;;;1.44;100.00;96094.63;4928886;29;20079;-72
2023/04/09 05:39:57;;;;;;;4.90;4.60;;;;;;;1.41;100.00;96090.41;4921743;29;20032;-73
2023/04/09 05:42:23;;;;;;;5.72;4.50;;;;;;;1.42;100.00;96097.28;4939369;29;20099;-73
2023/04/09 05:44:48;;;;;;;4.82;4.53;;;;;;;1.43;100.00;96106.72;4939189;29;20110;-72
2023/04/09 05:47:13;;;;;;;5.22;4.75;;;;;;;1.39;100.00;96107.81;4939247;29;20031;-72
2023/04/09 05:49:39;;;;;;;4.95;4.57;;;;;;;1.40;100.00;96099.09;4909092;29;20035;-72
2023/04/09 05:52:04;;;;;;;4.95;4.45;;;;;;;1.43;100.00;96104.13;4913843;29;20024;-73
2023/04/09 05:54:30;;;;;;;4.43;4.20;;;;;;;1.45;100.00;96101.47;4935502;29;20027;-72
2023/04/09 05:56:55;;;;;;;4.65;4.00;;;;;;;1.49;100.00;96107.38;4926960;29;20055;-72
2023/04/09 05:59:21;;;;;;;5.28;4.72;;;;;;;1.53;100.00;96116.69;4937904;29;20034;-73
2023/04/09 06:01:47;;;;;;;14.20;12.85;;;;;;;1.54;100.00;96115.75;4936853;29;20067;-73
2023/04/09 06:04:12;;;;;;;12.48;11.48;;;;;;;1.57;100.00;96118.19;4937239;29;20430;-72
2023/04/09 06:06:38;;;;;;;10.27;9.25;;;;;;;1.59;100.00;96111.19;4917767;29;20020;-72
2023/04/09 06:09:03;;;;;;;7.95;7.25;;;;;;;1.60;100.00;96115.44;4936339;29;20027;-72
2023/04/09 06:11:29;;;;;;;8.35;7.55;;;;;;;1.60;100.00;96115.44;4935639;29;20508;-72
2023/04/09 06:13:55;;;;;;;13.98;11.48;;;;;;;1.62;100.00;96117.97;4927907;29;20143;-72
2023/04/09 06:16:20;;;;;;;13.05;11.95;;;;;;;1.64;100.00;96121.34;4936172;29;20497;-72
2023/04/09 06:18:48;;;;;;;13.60;12.40;;;;;;;1.66;100.00;96119.50;4915594;29;20076;-72
2023/04/09 06:21:14;;;;;;;13.77;12.55;;;;;;;1.68;100.00;96115.94;4926278;29;20036;-73
2023/04/09 06:23:39;;;;;;;12.32;11.13;;;;;;;1.76;100.00;96125.91;4929807;29;20090;-73
2023/04/09 06:26:05;;;;;;;10.55;9.65;;;;;;;1.81;100.00;96118.75;4930520;29;20107;-72
2023/04/09 06:28:31;;;;;;;10.80;9.88;;;;;;;1.84;100.00;96118.59;4938544;29;20023;-73
2023/04/09 06:30:57;;;;;;;10.25;9.45;;;;;;;1.90;100.00;96119.19;4935756;29;20031;-73
2023/04/09 06:33:22;;;;;;;12.15;11.15;;;;;;;1.95;100.00;96119.78;4933833;29;20042;-73
2023/04/09 06:35:48;;;;;;;12.93;11.50;;;;;;;1.93;100.00;96113.81;4933192;29;20036;-72
2023/04/09 06:38:14;;;;;;;14.85;13.55;;;;;;;1.93;100.00;96122.47;4938552;29;20039;-72
2023/04/09 06:40:40;;;;;;;15.15;13.95;;;;;;;1.93;100.00;96114.69;4927429;29;20024;-72
2023/04/09 06:43:06;;;;;;;9.55;8.85;;;;;;;2.08;100.00;96120.84;4937033;29;20525;-72
2023/04/09 06:45:32;;;;;;;10.55;9.60;;;;;;;2.46;100.00;96117.16;4931947;29;20020;-72
2023/04/09 06:47:58;;;;;;;9.13;8.43;;;;;;;3.56;98.43;96116.34;4932358;29;20063;-72
2023/04/09 06:50:23;;;;;;;8.57;6.07;;;;;;;4.77;94.24;96107.47;4926322;29;20031;-72
2023/04/09 06:52:50;;;;;;;6.38;5.80;;;;;;;5.79;91.42;96119.25;4938792;29;20119;-74
2023/04/09 06:55:16;;;;;;;6.85;6.40;;;;;;;6.91;85.24;96116.09;4936250;29;20038;-71
2023/04/09 06:57:41;;;;;;;4.22;3.92;;;;;;;7.98;78.87;96124.94;4927434;29;20056;-76
2023/04/09 07:00:08;;;;;;;3.53;3.33;;;;;;;8.89;74.05;96121.59;4932809;29;20449;-69
2023/04/09 07:02:34;;;;;;;3.05;2.92;;;;;;;9.59;70.10;96122.13;4928787;29;20036;-74
2023/04/09 07:04:59;;;;;;;3.95;3.00;;;;;;;10.06;66.76;96118.34;4936574;29;20024;-74
2023/04/09 07:07:25;;;;;;;7.15;2.90;;;;;;;10.55;63.17;96121.28;4936749;29;20114;-73
2023/04/09 07:09:52;;;;;;;4.95;3.28;;;;;;;10.80;62.67;96119.16;4924530;29;20461;-76
2023/04/09 07:12:37;;;;;;;2.65;2.55;;;;;;;11.15;60.81;96117.06;4934418;29;20031;-70
2023/04/09 07:15:06;;;;;;;2.72;2.58;;;;;;;11.31;58.05;96109.47;4929679;29;20115;-68
2023/04/09 07:17:32;;;;;;;2.63;2.42;;;;;;;11.88;57.75;96114.06;4930362;29;20051;-73
2023/04/09 07:19:58;;;;;;;2.90;2.30;;;;;;;11.67;56.50;96116.84;4929875;29;20035;-73
2023/04/09 07:22:25;;;;;;;2.60;2.50;;;;;;;11.55;56.56;96116.16;4931594;29;20036;-72
2023/04/09 07:24:54;;;;;;;2.80;2.60;;;;;;;11.57;56.87;96116.00;4931722;29;21087;-72
2023/04/09 07:27:25;;;;;;;3.10;2.50;;;;;;;11.82;55.91;96113.78;4930038;29;20053;-72
2023/04/09 07:29:53;;;;;;;2.20;1.95;;;;;;;11.97;56.36;96114.22;4931626;28;20566;-72
2023/04/09 07:32:18;;;;;;;2.05;1.95;;;;;;;11.97;54.86;96109.75;4928463;29;20641;-71
2023/04/09 07:34:44;;;;;;;2.17;1.92;;;;;;;11.98;55.60;96113.25;4929116;29;20057;-72
2023/04/09 07:37:10;;;;;;;4.20;2.60;;;;;;;12.44;53.58;96111.66;4928298;29;20122;-70
2023/04/09 07:39:35;;;;;;;2.15;2.05;;;;;;;12.67;53.75;96108.66;4912092;29;20084;-72
2023/04/09 07:42:03;;;;;;;2.22;2.13;;;;;;;12.93;51.72;96115.06;4924065;29;20039;-72
2023/04/09 07:44:29;;;;;;;2.22;2.13;;;;;;;13.18;52.30;96109.13;4930588;29;20104;-74
2023/04/09 07:46:54;;;;;;;3.30;3.00;;;;;;;13.57;51.27;96107.22;4931953;29;20396;-72
2023/04/09 07:49:21;;;;;;;2.50;2.40;;;;;;;13.86;49.32;96109.66;4931433;29;20031;-72
2023/04/09 07:51:46;;;;;;;3.80;2.80;;;;;;;13.98;49.01;96110.25;4936165;29;20038;-72
2023/04/09 07:54:11;;;;;;;3.10;2.90;;;;;;;13.94;48.41;96116.00;4923823;29;20032;-73
2023/04/09 07:56:37;;;;;;;3.50;3.20;;;;;;;14.09;47.86;96116.28;4935604;29;20060;-73
2023/04/09 07:59:02;;;;;;;4.32;4.03;;;;;;;14.38;47.79;96117.81;4925187;29;20081;-72
2023/04/09 08:01:28;;;;;;;5.05;4.40;;;;;;;14.63;47.12;96120.63;4935985;29;20039;-73
2023/04/09 08:03:53;;;;;;;4.78;4.10;;;;;;;15.01;46.85;96121.19;4934120;29;20039;-73
2023/04/09 08:06:19;;;;;;;4.38;4.07;;;;;;;14.58;47.23;96121.06;4937024;29;20035;-74
2023/04/09 08:08:45;;;;;;;4.60;4.30;;;;;;;14.66;47.84;96120.28;4934957;29;20039;-73
2023/04/09 08:11:10;;;;;;;5.03;4.53;;;;;;;14.98;45.28;96129.44;4915109;29;20029;-73
2023/04/09 08:13:35;;;;;;;4.88;4.47;;;;;;;14.84;46.18;96121.09;4918275;29;20066;-74
2023/04/09 08:16:02;;;;;;;4.60;4.22;;;;;;;15.10;44.72;96122.03;4935986;29;20038;-74
2023/04/09 08:18:28;;;;;;;3.80;3.60;;;;;;;15.24;44.30;96126.72;4935973;29;20020;-73
2023/04/09 08:20:54;;;;;;;4.07;3.78;;;;;;;14.66;46.56;96125.59;4939374;29;20020;-73
2023/04/09 08:23:20;;;;;;;4.32;3.60;;;;;;;15.00;46.24;96124.81;4938419;29;20023;-72
2023/04/09 08:25:45;;;;;;;3.88;3.60;;;;;;;15.80;44.96;96123.53;4936502;29;20023;-74
2023/04/09 08:28:10;;;;;;;4.10;3.75;;;;;;;15.78;43.63;96127.34;4917338;29;20027;-74
2023/04/09 08:30:36;;;;;;;3.35;3.08;;;;;;;15.67;41.91;96132.00;4934283;29;20062;-77
2023/04/09 08:33:01;;;;;;;3.40;3.10;;;;;;;15.82;43.52;96129.53;4933430;29;20083;-74
2023/04/09 08:35:29;;;;;;;3.20;3.00;;;;;;;16.11;41.58;96135.38;4928156;29;20023;-74
2023/04/09 08:37:55;;;;;;;3.22;2.97;;;;;;;15.85;42.51;96128.38;4935196;29;20111;-74
2023/04/09 08:40:21;;;;;;;2.65;2.50;;;;;;;16.02;41.65;96131.88;4935022;29;20030;-74
2023/04/09 08:42:52;;;;;;;3.00;2.80;;;;;;;16.44;42.23;96132.69;4919621;29;20481;-74
2023/04/09 08:45:18;;;;;;;2.80;2.60;;;;;;;16.35;39.37;96133.72;4937868;29;20400;-74
2023/04/09 08:47:46;;;;;;;4.15;3.85;;;;;;;17.09;40.33;96138.06;4938965;29;20027;-74
2023/04/09 08:50:13;;;;;;;4.25;3.95;;;;;;;17.06;40.04;96141.91;4937816;29;20158;-74
2023/04/09 08:52:39;;;;;;;3.90;3.60;;;;;;;16.40;41.90;96142.00;4938851;29;20058;-74
2023/04/09 08:55:06;;;;;;;4.40;4.10;;;;;;;16.26;41.52;96148.81;4938434;29;20115;-74
2023/04/09 08:57:36;;;;;;;3.95;3.65;;;;;;;15.35;42.92;96146.00;4931827;29;20503;-74
2023/04/09 09:00:02;;;;;;;4.35;4.05;;;;;;;15.33;42.67;96141.69;4933596;29;20039;-74
2023/04/09 09:02:27;;;;;;;5.55;4.10;;;;;;;15.40;42.36;96135.72;4922282;29;20024;-74
2023/04/09 09:04:58;;;;;;;4.30;3.90;;;;;;;15.47;42.18;96142.88;4926607;29;20024;-74
2023/04/09 09:07:23;;;;;;;3.92;3.63;;;;;;;15.28;43.71;96132.53;4930610;29;20030;-74
2023/04/09 09:10:01;;;;;;;3.90;3.60;;;;;;;15.58;42.12;96136.44;4936550;29;20035;-74
2023/04/09 09:12:38;;;;;;;4.05;3.75;;;;;;;15.14;43.07;96132.19;4933146;29;20028;-73
2023/04/09 09:15:25;;;;;;;3.47;3.28;;;;;;;15.33;41.94;96132.88;4936160;29;20071;-74
2023/04/09 09:17:58;;;;;;;3.63;3.33;;;;;;;14.83;43.56;96130.03;4938720;29;20031;-74
2023/04/09 09:20:25;;;;;;;4.00;3.70;;;;;;;14.22;45.67;96132.59;4928378;29;20024;-74
2023/04/09 09:22:53;;;;;;;4.10;3.80;;;;;;;15.23;43.79;96124.25;4937893;29;20508;-75
2023/04/09 09:25:24;;;;;;;4.18;3.78;;;;;;;16.13;41.30;96123.56;4942846;29;20643;-74
2023/04/09 09:27:50;;;;;;;3.45;3.25;;;;;;;16.35;39.60;96123.91;4937255;29;20544;-75
2023/04/09 09:30:26;;;;;;;3.80;3.50;;;;;;;15.67;41.83;96118.72;4932952;29;20030;-74
2023/04/09 09:33:11;;;;;;;4.10;3.30;;;;;;;15.62;40.62;96123.69;4932889;29;20103;-74
2023/04/09 09:35:50;;;;;;;3.22;3.00;;;;;;;15.57;40.97;96120.69;4931680;29;20053;-73
2023/04/09 09:38:17;;;;;;;3.15;2.95;;;;;;;15.86;41.32;96119.41;4920353;29;20039;-74
2023/04/09 09:40:43;;;;;;;2.90;2.70;;;;;;;16.21;41.34;96117.44;4927791;29;20020;-72
2023/04/09 09:43:09;;;;;;;3.20;2.90;;;;;;;16.37;39.63;96113.97;4938250;29;20024;-73
2023/04/09 09:45:35;;;;;;;5.13;3.95;;;;;;;15.64;40.79;96113.75;4938489;29;20039;-74
2023/04/09 09:48:02;;;;;;;3.40;3.10;;;;;;;15.81;40.29;96111.13;4936206;29;20093;-73
2023/04/09 09:50:29;;;;;;;4.50;4.20;;;;;;;16.30;39.76;96111.13;4928552;29;20083;-73
2023/04/09 09:53:02;;;;;;;3.85;3.10;;;;;;;16.28;39.77;96109.63;4937481;29;20085;-73
2023/04/09 09:55:31;;;;;;;4.35;3.90;;;;;;;16.41;39.15;96114.44;4937237;29;20111;-74
2023/04/09 09:58:00;;;;;;;3.30;3.03;;;;;;;16.75;38.68;96113.38;4927847;29;20059;-74
2023/04/09 10:00:27;;;;;;;2.75;2.55;;;;;;;17.19;37.69;96112.06;4922990;29;20023;-73
2023/04/09 10:02:58;;;;;;;2.92;2.60;;;;;;;17.31;35.50;96107.19;4937536;29;20023;-73
2023/04/09 10:05:26;;;;;;;3.10;2.75;;;;;;;16.84;37.34;96112.34;4922721;29;20016;-74
2023/04/09 10:07:56;;;;;;;2.75;2.55;;;;;;;16.81;37.06;96111.88;4920633;29;20034;-74
2023/04/09 10:10:23;;;;;;;2.85;2.65;;;;;;;17.47;36.63;96101.78;4936395;29;20020;-75
2023/04/09 10:12:51;;;;;;;3.65;3.35;;;;;;;17.52;36.59;96097.78;4937696;29;20027;-74
2023/04/09 10:15:18;;;;;;;3.13;2.90;;;;;;;17.81;37.94;96099.75;4937117;29;20079;-73
2023/04/09 10:17:43;;;;;;;3.00;2.80;;;;;;;17.92;36.79;96101.16;4928000;29;20055;-74
2023/04/09 10:20:18;;;;;;;3.75;3.20;;;;;;;17.66;37.89;96097.03;4924210;29;20031;-74
2023/04/09 10:22:48;;;;;;;2.53;2.33;;;;;;;17.21;38.10;96098.63;4911840;29;20032;-72
2023/04/09 10:25:15;;;;;;;2.70;2.50;;;;;;;17.97;36.23;96088.13;4936159;29;20020;-75
2023/04/09 10:27:44;;;;;;;5.53;2.75;;;;;;;18.36;36.00;96081.03;4927217;29;20485;-75
2023/04/09 10:30:30;;;;;;;2.97;2.70;;;;;;;18.28;35.15;96087.25;4930137;29;20059;-75
2023/04/09 10:33:08;;;;;;;3.40;2.40;;;;;;;17.67;36.41;96085.38;4931164;29;20031;-75
2023/04/09 10:35:34;;;;;;;3.88;2.85;;;;;;;17.52;37.00;96082.66;4924347;29;20079;-74
2023/04/09 10:37:59;;;;;;;3.05;2.85;;;;;;;17.55;38.14;96078.78;4937316;29;20028;-74
2023/04/09 10:40:27;;;;;;;2.80;2.60;;;;;;;17.69;37.62;96071.91;4925479;29;20081;-73
2023/04/09 10:42:54;;;;;;;3.50;3.20;;;;;;;17.72;37.14;96064.38;4937167;29;20034;-73
2023/04/09 10:45:20;;;;;;;2.65;2.45;;;;;;;18.08;37.54;96068.28;4935262;29;20020;-74
2023/04/09 10:47:50;;;;;;;2.40;2.13;;;;;;;17.64;35.83;96064.44;4933378;29;20168;-73
2023/04/09 10:50:19;;;;;;;2.60;2.40;;;;;;;17.33;37.17;96065.28;4936288;29;20027;-73
2023/04/09 10:52:45;;;;;;;2.80;2.60;;;;;;;17.76;38.86;96057.66;4931610;29;20038;-75
2023/04/09 10:55:33;;;;;;;4.60;2.67;;;;;;;18.60;35.45;96058.59;4915653;29;20028;-73
2023/04/09 10:57:59;;;;;;;3.13;2.88;;;;;;;18.59;37.34;96051.63;4930443;29;20051;-75
2023/04/09 11:00:24;;;;;;;3.22;2.92;;;;;;;18.97;35.69;96042.66;4924365;29;20102;-74
2023/04/09 11:03:03;;;;;;;3.72;3.35;;;;;;;18.40;37.15;96036.16;4931165;29;20032;-73
2023/04/09 11:05:38;;;;;;;3.28;3.00;;;;;;;18.49;35.70;96036.91;4925539;29;20750;-74
2023/04/09 11:08:11;;;;;;;3.42;3.13;;;;;;;18.21;35.96;96032.19;4934036;29;20027;-73
2023/04/09 11:10:39;;;;;;;3.50;3.30;;;;;;;18.16;37.26;96022.06;4930824;29;20024;-74
2023/04/09 11:13:05;;;;;;;3.17;2.88;;;;;;;18.35;37.33;96025.22;4933335;29;20035;-73
2023/04/09 11:15:35;;;;;;;5.22;3.60;;;;;;;18.42;35.81;96024.31;4935429;29;20513;-74
2023/04/09 11:18:01;;;;;;;2.65;2.50;;;;;;;18.68;34.80;96019.50;4925689;29;20102;-74
2023/04/09 11:20:27;;;;;;;2.50;2.30;;;;;;;18.40;34.17;96014.84;4924038;29;20024;-72
2023/04/09 11:22:53;;;;;;;2.40;2.30;;;;;;;19.35;34.45;96012.34;4936599;29;20034;-74
2023/04/09 11:25:19;;;;;;;2.90;2.70;;;;;;;19.14;34.94;96011.31;4936224;29;20036;-74
2023/04/09 11:27:45;;;;;;;2.60;2.40;;;;;;;19.83;33.50;96013.63;4936110;29;20027;-74
2023/04/09 11:30:11;;;;;;;4.47;2.67;;;;;;;19.67;33.38;96004.00;4936460;29;20032;-74
2023/04/09 11:32:36;;;;;;;2.97;2.70;;;;;;;19.87;32.59;96002.34;4935685;29;20027;-74
2023/04/09 11:35:02;;;;;;;2.40;2.22;;;;;;;19.52;33.42;95996.06;4924983;29;20027;-74